Time;durP1;ratioP1;P1;durP2;ratioP2;P2;SDS_P1;SDS_P2;PMS_P1;PMS_P2;Temp;Humidity;BMP_temperature;BMP_pressure;BME280_temperature;BME280_humidity;BME280_pressure;Samples;Min_cycle;Max_cycle;Signal;HPM_P1;HPM_P2
2022/07/07 00:02:24;;;;;;;63.17;26.08;;;16.50;99.90;;;;;;4950597;28;20049;-77
2022/07/07 00:04:50;;;;;;;72.30;25.65;;;16.60;99.90;;;;;;4971891;28;20045;-73
2022/07/07 00:07:15;;;;;;;76.00;26.33;;;16.60;99.90;;;;;;4961586;28;20078;-78
2022/07/07 00:09:41;;;;;;;75.72;28.27;;;16.50;99.90;;;;;;4958797;28;20038;-76
2022/07/07 00:12:07;;;;;;;82.03;28.55;;;16.60;99.90;;;;;;4954322;28;20067;-80
2022/07/07 00:14:33;;;;;;;74.40;28.92;;;16.60;99.90;;;;;;4956897;28;20398;-77
2022/07/07 00:16:59;;;;;;;81.40;28.00;;;16.50;99.90;;;;;;4964837;28;20042;-76
2022/07/07 00:19:25;;;;;;;66.15;26.20;;;16.60;99.90;;;;;;4955347;28;20038;-81
2022/07/07 00:21:52;;;;;;;72.28;26.02;;;16.50;99.90;;;;;;4961267;28;20402;-76
2022/07/07 00:24:17;;;;;;;65.97;25.70;;;16.50;99.90;;;;;;4961722;28;20055;-78
2022/07/07 00:26:43;;;;;;;68.28;26.20;;;16.60;99.90;;;;;;4953968;28;20027;-75
2022/07/07 00:29:09;;;;;;;64.80;25.67;;;16.40;99.90;;;;;;4956402;28;20121;-74
2022/07/07 00:31:34;;;;;;;62.10;24.33;;;16.60;99.90;;;;;;4957125;28;20393;-77
2022/07/07 00:34:00;;;;;;;58.83;24.17;;;16.50;99.90;;;;;;4953741;28;20046;-76
2022/07/07 00:36:26;;;;;;;63.03;23.90;;;16.60;99.90;;;;;;4953251;28;20047;-79
2022/07/07 00:38:51;;;;;;;62.55;24.30;;;16.60;99.90;;;;;;4955082;28;20405;-77
2022/07/07 00:41:17;;;;;;;61.83;23.98;;;16.50;99.90;;;;;;4967033;28;20042;-77
2022/07/07 00:43:44;;;;;;;60.08;23.90;;;16.40;99.90;;;;;;4964264;28;20043;-80
2022/07/07 00:46:11;;;;;;;65.00;24.50;;;16.40;99.90;;;;;;4938715;28;20039;-75
2022/07/07 00:48:38;;;;;;;71.18;25.38;;;16.60;99.90;;;;;;4952069;28;20069;-78
2022/07/07 00:51:05;;;;;;;64.40;24.40;;;16.60;99.90;;;;;;4979387;28;20146;-78
2022/07/07 00:53:31;;;;;;;63.30;25.30;;;16.40;99.90;;;;;;4967961;28;20050;-76
2022/07/07 00:55:57;;;;;;;58.47;22.63;;;16.40;99.90;;;;;;4963997;28;20038;-74
2022/07/07 00:58:23;;;;;;;59.75;23.27;;;16.50;99.90;;;;;;4951280;28;20418;-79
2022/07/07 01:00:49;;;;;;;57.13;22.45;;;16.60;99.90;;;;;;4967676;28;20131;-77
2022/07/07 01:03:15;;;;;;;53.65;21.33;;;16.50;99.90;;;;;;4952921;28;20046;-76
2022/07/07 01:05:41;;;;;;;56.80;21.67;;;16.40;99.90;;;;;;4950094;28;20043;-77
2022/07/07 01:08:09;;;;;;;63.72;23.70;;;16.40;99.90;;;;;;4979650;28;20054;-79
2022/07/07 01:10:35;;;;;;;58.75;20.80;;;16.40;99.90;;;;;;4986307;28;20493;-78
2022/07/07 01:13:02;;;;;;;58.25;19.65;;;16.40;99.90;;;;;;4958696;28;20064;-73
2022/07/07 01:15:28;;;;;;;45.17;18.52;;;16.50;99.90;;;;;;4962746;28;20057;-77
2022/07/07 01:17:54;;;;;;;42.53;16.67;;;16.50;99.90;;;;;;4952970;28;20040;-78
2022/07/07 01:20:20;;;;;;;30.58;14.80;;;16.40;99.90;;;;;;4940274;28;20053;-75
2022/07/07 01:22:55;;;;;;;30.05;12.55;;;16.40;99.90;;;;;;4966824;28;20050;-72
2022/07/07 01:25:21;;;;;;;32.03;13.48;;;16.30;99.90;;;;;;4960197;28;20038;-72
2022/07/07 01:27:47;;;;;;;29.50;13.02;;;16.10;99.90;;;;;;4961894;28;20086;-75
2022/07/07 01:30:13;;;;;;;33.08;14.65;;;15.90;99.90;;;;;;4953735;28;20035;-72
2022/07/07 01:32:39;;;;;;;42.78;13.48;;;15.90;99.90;;;;;;4955750;28;20046;-71
2022/07/07 01:35:05;;;;;;;39.92;13.88;;;15.70;99.90;;;;;;4957194;28;20047;-68
2022/07/07 01:37:33;;;;;;;37.67;15.20;;;15.70;99.90;;;;;;4957494;28;20035;-68
2022/07/07 01:39:59;;;;;;;39.97;15.00;;;15.70;99.90;;;;;;4989092;28;20046;-68
2022/07/07 01:42:25;;;;;;;42.28;16.20;;;15.80;99.90;;;;;;4952499;28;20106;-75
2022/07/07 01:44:51;;;;;;;34.90;15.00;;;15.70;99.90;;;;;;4958160;28;20494;-73
2022/07/07 01:47:19;;;;;;;40.08;15.90;;;15.70;99.90;;;;;;4955023;28;20038;-71
2022/07/07 01:49:45;;;;;;;43.63;17.20;;;15.70;99.90;;;;;;4953821;28;20431;-73
2022/07/07 01:52:11;;;;;;;41.08;16.60;;;15.60;99.90;;;;;;4963418;28;20181;-69
2022/07/07 01:54:37;;;;;;;41.58;17.30;;;15.60;99.90;;;;;;4968523;28;20366;-69
2022/07/07 01:57:05;;;;;;;49.70;17.58;;;15.60;99.90;;;;;;4947294;28;20042;-77
2022/07/07 01:59:31;;;;;;;43.65;18.23;;;15.60;99.90;;;;;;4951943;28;20045;-75
2022/07/07 02:01:57;;;;;;;40.17;16.90;;;15.80;99.90;;;;;;4987406;28;20093;-71
2022/07/07 02:04:23;;;;;;;45.63;17.63;;;15.60;99.90;;;;;;4958986;28;20579;-73
2022/07/07 02:06:48;;;;;;;49.83;17.23;;;15.60;99.90;;;;;;4962829;28;20042;-71
2022/07/07 02:09:14;;;;;;;42.95;18.63;;;15.50;99.90;;;;;;4967273;28;20505;-72
2022/07/07 02:11:40;;;;;;;46.60;18.65;;;15.80;99.90;;;;;;4948784;28;20475;-67
2022/07/07 02:14:06;;;;;;;43.60;18.60;;;15.50;99.90;;;;;;4969768;28;20128;-70
2022/07/07 02:16:33;;;;;;;38.20;18.20;;;15.80;99.90;;;;;;4956674;28;20043;-73
2022/07/07 02:19:02;;;;;;;43.90;18.10;;;15.70;99.90;;;;;;4951998;28;20121;-74
2022/07/07 02:21:28;;;;;;;37.47;17.58;;;15.80;99.90;;;;;;4957251;28;20046;-73
2022/07/07 02:23:55;;;;;;;39.80;17.63;;;15.50;99.90;;;;;;4956659;28;20042;-70
2022/07/07 02:26:21;;;;;;;40.95;17.13;;;15.70;99.90;;;;;;4949868;28;20035;-71
2022/07/07 02:28:47;;;;;;;38.35;16.77;;;15.60;99.90;;;;;;4952791;28;20446;-75
2022/07/07 02:31:14;;;;;;;42.60;17.90;;;15.50;99.90;;;;;;4955046;28;20567;-73
2022/07/07 02:33:40;;;;;;;45.22;19.17;;;15.60;99.90;;;;;;4953424;28;20045;-70
2022/07/07 02:36:06;;;;;;;36.72;16.27;;;15.80;99.90;;;;;;4953025;28;20054;-71
2022/07/07 02:38:33;;;;;;;48.28;17.92;;;15.70;99.90;;;;;;4956556;28;20394;-68
2022/07/07 02:40:58;;;;;;;48.22;17.73;;;15.50;99.90;;;;;;4953254;28;20051;-68
2022/07/07 02:43:24;;;;;;;46.75;18.13;;;15.60;99.90;;;;;;4950136;28;20037;-69
2022/07/07 02:45:51;;;;;;;43.63;16.92;;;15.80;99.90;;;;;;4956392;28;20512;-68
2022/07/07 02:48:19;;;;;;;41.95;17.60;;;15.60;99.90;;;;;;4952686;28;20039;-73
2022/07/07 02:50:45;;;;;;;41.85;18.10;;;15.50;99.90;;;;;;4955204;28;20470;-73
2022/07/07 02:53:11;;;;;;;47.70;17.85;;;15.70;99.90;;;;;;4956135;28;20054;-73
2022/07/07 02:55:38;;;;;;;48.85;17.70;;;15.70;99.90;;;;;;4959089;28;20387;-72
2022/07/07 02:58:05;;;;;;;43.72;17.08;;;15.60;99.90;;;;;;4951149;28;20034;-75
2022/07/07 03:00:34;;;;;;;39.10;16.33;;;15.80;99.90;;;;;;4953556;28;20054;-76
2022/07/07 03:03:01;;;;;;;36.70;15.73;;;15.80;99.90;;;;;;4945606;28;20123;-72
2022/07/07 03:05:27;;;;;;;41.42;16.05;;;15.70;99.90;;;;;;4955930;28;20391;-69
2022/07/07 03:07:53;;;;;;;33.33;16.05;;;15.80;99.90;;;;;;4953345;28;20124;-74
2022/07/07 03:10:19;;;;;;;29.77;12.90;;;15.60;99.90;;;;;;4987505;28;20086;-72
2022/07/07 03:12:44;;;;;;;35.88;12.38;;;15.70;99.90;;;;;;4957721;28;20524;-71
2022/07/07 03:15:10;;;;;;;33.05;11.57;;;15.80;99.90;;;;;;4957924;28;20066;-74
2022/07/07 03:17:40;;;;;;;30.75;11.90;;;15.70;99.90;;;;;;4957427;28;20047;-70
2022/07/07 03:20:06;;;;;;;29.00;11.07;;;15.70;99.90;;;;;;4950753;28;20046;-67
2022/07/07 03:22:32;;;;;;;33.25;11.82;;;15.60;99.90;;;;;;4959661;28;20443;-74
2022/07/07 03:24:58;;;;;;;35.50;11.27;;;15.60;99.90;;;;;;4954694;28;20078;-71
2022/07/07 03:27:24;;;;;;;36.72;10.80;;;15.70;99.90;;;;;;4961618;28;20066;-71
2022/07/07 03:29:51;;;;;;;29.52;9.35;;;15.50;99.90;;;;;;4957148;28;20397;-71
2022/07/07 03:32:17;;;;;;;31.25;9.43;;;15.60;99.90;;;;;;4962498;28;20069;-69
2022/07/07 03:34:42;;;;;;;33.83;9.40;;;15.70;99.90;;;;;;4966659;28;20042;-72
2022/07/07 03:37:08;;;;;;;27.00;9.30;;;15.60;99.90;;;;;;4957801;28;20568;-71
2022/07/07 03:39:33;;;;;;;32.05;10.27;;;15.60;99.90;;;;;;4957456;28;20038;-73
2022/07/07 03:41:59;;;;;;;37.05;10.18;;;15.40;99.90;;;;;;4956719;28;20394;-72
2022/07/07 03:44:25;;;;;;;37.35;9.90;;;15.50;99.90;;;;;;4958752;28;20089;-75
2022/07/07 03:46:51;;;;;;;41.05;9.50;;;15.60;99.90;;;;;;4959503;28;20039;-75
2022/07/07 03:49:16;;;;;;;38.97;9.63;;;15.60;99.90;;;;;;4946059;28;20045;-73
2022/07/07 03:51:42;;;;;;;33.67;8.77;;;15.60;99.90;;;;;;4942339;28;20061;-74
2022/07/07 03:54:08;;;;;;;36.88;8.30;;;15.40;99.90;;;;;;4951723;28;20042;-71
2022/07/07 03:56:33;;;;;;;26.52;7.32;;;15.60;99.90;;;;;;4953198;28;20497;-81
2022/07/07 03:58:59;;;;;;;27.90;6.78;;;15.40;99.90;;;;;;4950062;28;20039;-73
2022/07/07 04:01:25;;;;;;;27.35;6.70;;;15.40;99.90;;;;;;4951890;28;20043;-75
2022/07/07 04:03:50;;;;;;;30.83;6.38;;;15.50;99.90;;;;;;4959657;28;20050;-72
2022/07/07 04:06:16;;;;;;;23.85;5.90;;;15.60;99.90;;;;;;4956190;28;20050;-72
2022/07/07 04:08:41;;;;;;;28.95;5.93;;;15.40;99.90;;;;;;4954724;28;20043;-71
2022/07/07 04:11:07;;;;;;;35.90;6.40;;;15.40;99.90;;;;;;4957721;28;20030;-73
2022/07/07 04:13:33;;;;;;;28.35;4.90;;;15.50;99.90;;;;;;4955954;28;20496;-74
2022/07/07 04:15:58;;;;;;;18.55;3.72;;;15.60;99.90;;;;;;4940126;28;20105;-72
2022/07/07 04:18:24;;;;;;;30.42;4.45;;;15.40;99.90;;;;;;4954242;28;20041;-75
2022/07/07 04:20:51;;;;;;;30.45;4.25;;;15.50;99.90;;;;;;4954703;28;20046;-74
2022/07/07 04:23:16;;;;;;;21.33;4.60;;;15.50;99.90;;;;;;4970192;28;20046;-74
2022/07/07 04:25:42;;;;;;;16.65;2.55;;;15.50;99.90;;;;;;4953688;28;20041;-73
2022/07/07 04:28:07;;;;;;;22.20;3.33;;;15.30;99.90;;;;;;4953207;28;20035;-70
2022/07/07 04:30:33;;;;;;;17.55;3.05;;;15.40;99.90;;;;;;4952913;28;20043;-74
2022/07/07 04:32:59;;;;;;;18.88;3.00;;;15.40;99.90;;;;;;4954281;28;20042;-74
2022/07/07 04:35:25;;;;;;;19.17;3.40;;;15.30;99.90;;;;;;4952183;28;20053;-69
2022/07/07 04:37:50;;;;;;;18.15;3.00;;;15.30;99.90;;;;;;4955535;28;20137;-70
2022/07/07 04:40:16;;;;;;;22.92;3.28;;;15.20;99.90;;;;;;4955138;28;20047;-75
2022/07/07 04:42:41;;;;;;;20.88;2.97;;;15.30;99.90;;;;;;4956322;28;20105;-72
2022/07/07 04:45:08;;;;;;;15.73;2.33;;;15.20;99.90;;;;;;4950325;28;20047;-73
2022/07/07 04:47:39;;;;;;;25.98;3.10;;;15.30;99.90;;;;;;4953526;28;20046;-73
2022/07/07 04:50:06;;;;;;;26.90;2.73;;;15.40;99.90;;;;;;4937165;28;20046;-73
2022/07/07 04:52:31;;;;;;;25.17;3.95;;;15.40;99.90;;;;;;4947298;28;20038;-69
2022/07/07 04:54:57;;;;;;;30.45;3.20;;;15.40;99.90;;;;;;4955164;28;20502;-73
2022/07/07 04:57:22;;;;;;;25.27;3.70;;;15.30;99.90;;;;;;4955791;28;20466;-72
2022/07/07 04:59:48;;;;;;;18.40;3.13;;;15.40;99.90;;;;;;4955518;28;20093;-76
2022/07/07 05:02:13;;;;;;;12.23;2.05;;;15.40;99.90;;;;;;4955120;28;20043;-76
2022/07/07 05:04:39;;;;;;;21.88;2.88;;;15.40;99.90;;;;;;4955199;28;20043;-69
2022/07/07 05:07:05;;;;;;;27.33;3.30;;;15.40;99.90;;;;;;4954425;28;20034;-68
2022/07/07 05:09:30;;;;;;;25.83;3.13;;;15.50;99.90;;;;;;4958291;28;20121;-68
2022/07/07 05:11:56;;;;;;;21.13;3.25;;;15.40;99.90;;;;;;4976466;28;20034;-72
2022/07/07 05:14:21;;;;;;;15.43;2.88;;;15.40;99.90;;;;;;4979512;28;20038;-71
2022/07/07 05:16:47;;;;;;;22.65;3.22;;;15.50;99.90;;;;;;4988832;28;20046;-71
2022/07/07 05:19:12;;;;;;;14.77;2.60;;;15.40;99.90;;;;;;4978671;28;20097;-69
2022/07/07 05:21:38;;;;;;;21.13;2.85;;;15.60;99.90;;;;;;4954670;28;20085;-73
2022/07/07 05:24:04;;;;;;;17.33;2.92;;;15.50;99.90;;;;;;4959399;28;20548;-71
2022/07/07 05:26:29;;;;;;;21.13;2.83;;;15.60;99.90;;;;;;4958606;28;20578;-68
2022/07/07 05:28:55;;;;;;;24.38;3.97;;;15.60;99.90;;;;;;4958292;28;20045;-72
2022/07/07 05:31:20;;;;;;;20.52;3.00;;;15.70;99.90;;;;;;4958856;28;20073;-72
2022/07/07 05:33:46;;;;;;;18.70;3.05;;;15.80;99.90;;;;;;4958677;28;20137;-72
2022/07/07 05:36:21;;;;;;;17.52;2.90;;;16.00;99.90;;;;;;4959087;28;20039;-72
2022/07/07 05:38:46;;;;;;;15.93;2.50;;;16.10;99.90;;;;;;4958756;28;20054;-74
2022/07/07 05:41:12;;;;;;;15.50;2.17;;;16.30;99.90;;;;;;4959692;28;20046;-74
2022/07/07 05:43:38;;;;;;;27.10;4.00;;;16.50;99.90;;;;;;4959023;28;20376;-74
2022/07/07 05:46:04;;;;;;;21.52;3.05;;;16.50;99.90;;;;;;4958746;28;20429;-70
2022/07/07 05:48:29;;;;;;;18.60;3.30;;;16.50;99.90;;;;;;4963573;28;20461;-68
2022/07/07 05:50:55;;;;;;;19.75;3.10;;;16.50;99.90;;;;;;4961052;28;20042;-74
2022/07/07 05:53:21;;;;;;;32.22;3.38;;;16.40;99.90;;;;;;4963132;28;20046;-67
2022/07/07 05:55:47;;;;;;;18.98;3.25;;;16.40;99.90;;;;;;4963654;28;20050;-72
2022/07/07 05:58:13;;;;;;;20.08;2.83;;;16.20;99.90;;;;;;4958067;28;20046;-71
2022/07/07 06:00:38;;;;;;;11.85;1.85;;;16.20;99.90;;;;;;4971006;28;20517;-74
2022/07/07 06:03:04;;;;;;;26.00;3.85;;;16.30;99.90;;;;;;4960168;28;20047;-70
2022/07/07 06:05:30;;;;;;;12.23;2.55;;;16.30;99.90;;;;;;4963105;28;20035;-71
2022/07/07 06:07:55;;;;;;;19.50;2.47;;;16.40;99.90;;;;;;4953986;28;20046;-73
2022/07/07 06:10:21;;;;;;;24.67;2.97;;;16.70;99.90;;;;;;4961354;28;20038;-71
2022/07/07 06:12:48;;;;;;;24.10;3.80;;;16.90;99.90;;;;;;4960336;28;20405;-73
2022/07/07 06:15:17;;;;;;;28.00;3.72;;;16.80;99.90;;;;;;4962328;28;20635;-73
2022/07/07 06:17:43;;;;;;;24.85;4.20;;;16.70;99.90;;;;;;4962519;28;20450;-73
2022/07/07 06:20:09;;;;;;;21.85;4.20;;;16.70;99.90;;;;;;4960275;28;20072;-70
2022/07/07 06:22:35;;;;;;;24.33;3.33;;;16.50;99.90;;;;;;4941845;28;20070;-72
2022/07/07 06:25:01;;;;;;;24.85;3.20;;;16.40;99.90;;;;;;4955075;28;20081;-70
2022/07/07 06:27:26;;;;;;;25.65;3.63;;;16.40;99.90;;;;;;4954057;28;20050;-71
2022/07/07 06:29:55;;;;;;;24.08;3.38;;;16.40;99.90;;;;;;4957599;28;20078;-68
2022/07/07 06:32:21;;;;;;;31.05;3.78;;;16.40;99.90;;;;;;4956730;28;20513;-74
2022/07/07 06:34:47;;;;;;;30.42;4.28;;;16.30;99.90;;;;;;4957036;28;20505;-72
2022/07/07 06:37:13;;;;;;;28.33;3.47;;;16.30;99.90;;;;;;4956458;28;20038;-70
2022/07/07 06:39:38;;;;;;;22.67;3.42;;;16.20;99.90;;;;;;4952767;28;20071;-70
2022/07/07 06:42:05;;;;;;;22.50;2.70;;;16.40;99.90;;;;;;4943520;28;20034;-73
2022/07/07 06:44:31;;;;;;;17.75;2.33;;;16.30;99.90;;;;;;4956746;28;20038;-71
2022/07/07 06:47:00;;;;;;;16.98;2.05;;;16.60;99.90;;;;;;4956922;28;20130;-72
2022/07/07 06:49:27;;;;;;;12.98;1.42;;;16.60;99.90;;;;;;4957822;28;20047;-75
2022/07/07 06:51:53;;;;;;;14.68;2.22;;;16.70;99.90;;;;;;4958068;28;20074;-74
2022/07/07 06:54:20;;;;;;;14.45;2.88;;;16.80;99.90;;;;;;4956884;28;20043;-74
2022/07/07 06:56:46;;;;;;;19.40;2.15;;;16.70;99.90;;;;;;4950460;28;20474;-72
2022/07/07 06:59:12;;;;;;;23.80;2.70;;;16.70;99.90;;;;;;4956968;28;20082;-75
2022/07/07 07:01:37;;;;;;;12.65;2.13;;;16.50;99.90;;;;;;4955904;28;20046;-68
2022/07/07 07:04:04;;;;;;;19.02;2.30;;;16.40;99.90;;;;;;4956068;28;20103;-68
2022/07/07 07:06:30;;;;;;;12.60;2.28;;;16.40;99.90;;;;;;4956420;28;20082;-70
2022/07/07 07:08:56;;;;;;;20.42;2.00;;;16.30;99.90;;;;;;4957461;28;20070;-78
2022/07/07 07:11:22;;;;;;;17.17;2.00;;;16.20;99.90;;;;;;4957265;28;20054;-69
2022/07/07 07:13:48;;;;;;;16.63;1.80;;;16.20;99.90;;;;;;4951508;28;20039;-74
2022/07/07 07:16:15;;;;;;;11.80;1.95;;;16.20;99.90;;;;;;4936825;29;20054;-73
2022/07/07 07:18:40;;;;;;;16.38;1.88;;;16.30;99.90;;;;;;4948153;28;20051;-73
2022/07/07 07:21:06;;;;;;;9.13;1.60;;;16.50;99.90;;;;;;4957190;28;20049;-74
2022/07/07 07:23:32;;;;;;;9.40;1.38;;;16.70;99.90;;;;;;4956491;28;20039;-77
2022/07/07 07:25:58;;;;;;;10.93;1.67;;;17.00;99.90;;;;;;4950707;29;20038;-74
2022/07/07 07:28:24;;;;;;;12.27;2.53;;;17.10;99.90;;;;;;4946323;28;20035;-71
2022/07/07 07:30:49;;;;;;;12.77;1.50;;;16.90;99.90;;;;;;4948915;29;20039;-74
2022/07/07 07:33:15;;;;;;;11.18;1.58;;;16.80;99.90;;;;;;4944019;28;20030;-72
2022/07/07 07:35:41;;;;;;;11.30;1.67;;;16.90;99.90;;;;;;4937200;29;20046;-73
2022/07/07 07:38:06;;;;;;;9.65;1.30;;;17.10;99.90;;;;;;4946802;28;20441;-74
2022/07/07 07:40:32;;;;;;;3.30;0.73;;;17.10;99.90;;;;;;4955628;28;20042;-72
2022/07/07 07:42:58;;;;;;;4.57;1.05;;;17.20;99.90;;;;;;4956972;28;20105;-72
2022/07/07 07:45:23;;;;;;;4.45;0.80;;;17.30;99.90;;;;;;4956165;28;20043;-75
2022/07/07 07:47:49;;;;;;;7.32;0.73;;;17.40;99.90;;;;;;4947963;28;20062;-68
2022/07/07 07:50:20;;;;;;;7.70;1.10;;;17.40;99.90;;;;;;4956919;28;20489;-71
2022/07/07 07:52:48;;;;;;;6.57;1.17;;;17.40;99.90;;;;;;4956542;28;20050;-76
2022/07/07 07:55:16;;;;;;;4.93;0.98;;;17.50;99.90;;;;;;4955836;28;20086;-77
2022/07/07 07:57:43;;;;;;;10.27;1.13;;;17.50;99.90;;;;;;4955671;28;20053;-74
2022/07/07 08:00:11;;;;;;;5.57;0.95;;;17.60;99.90;;;;;;4955163;28;20046;-71
2022/07/07 08:02:37;;;;;;;13.32;2.40;;;17.60;99.90;;;;;;4955461;28;20047;-75
2022/07/07 08:05:03;;;;;;;8.63;1.58;;;17.70;99.90;;;;;;4939733;28;20058;-75
2022/07/07 08:07:28;;;;;;;8.77;1.92;;;17.80;99.90;;;;;;4940823;28;20070;-76
2022/07/07 08:09:54;;;;;;;20.33;2.30;;;17.70;99.90;;;;;;4965125;28;20038;-70
2022/07/07 08:12:20;;;;;;;16.63;2.83;;;17.50;99.90;;;;;;4962180;28;20038;-70
2022/07/07 08:14:45;;;;;;;8.02;1.73;;;17.40;99.90;;;;;;4971715;28;20041;-74
2022/07/07 08:17:11;;;;;;;10.23;2.17;;;17.30;99.90;;;;;;4953909;28;20089;-72
2022/07/07 08:19:37;;;;;;;8.23;1.40;;;17.30;99.90;;;;;;4959470;28;20043;-76
2022/07/07 08:22:03;;;;;;;12.60;1.52;;;17.30;99.90;;;;;;4972989;28;20043;-75
2022/07/07 08:24:29;;;;;;;13.48;1.48;;;17.40;99.90;;;;;;4960240;28;20031;-75
2022/07/07 08:26:54;;;;;;;13.30;2.45;;;17.40;99.90;;;;;;4970560;28;20049;-72
2022/07/07 08:29:20;;;;;;;5.05;1.08;;;17.50;99.90;;;;;;4965787;28;20089;-75
2022/07/07 08:31:46;;;;;;;6.68;1.30;;;17.60;99.90;;;;;;4963730;28;20054;-75
2022/07/07 08:34:12;;;;;;;5.10;1.50;;;17.70;99.90;;;;;;4945556;28;20042;-80
2022/07/07 08:36:38;;;;;;;10.23;2.03;;;17.50;99.90;;;;;;4954789;28;20536;-72
2022/07/07 08:39:04;;;;;;;11.25;2.33;;;17.00;99.90;;;;;;4957509;28;20087;-71
2022/07/07 08:41:30;;;;;;;4.65;1.23;;;16.70;99.90;;;;;;4954697;28;20046;-72
2022/07/07 08:43:56;;;;;;;12.15;1.50;;;16.70;99.90;;;;;;4957116;28;20764;-71
2022/07/07 08:46:22;;;;;;;7.18;1.42;;;16.60;99.90;;;;;;4958401;28;20121;-71
2022/07/07 08:48:48;;;;;;;12.60;1.77;;;16.70;99.90;;;;;;4948328;29;20075;-68
2022/07/07 08:51:15;;;;;;;13.90;1.90;;;16.80;99.90;;;;;;4943733;28;20066;-70
2022/07/07 08:53:46;;;;;;;15.73;1.20;;;17.10;99.90;;;;;;4957969;28;20043;-72
2022/07/07 08:56:12;;;;;;;5.75;1.70;;;17.20;99.90;;;;;;4953215;28;20557;-74
2022/07/07 08:58:39;;;;;;;8.20;1.30;;;17.30;99.90;;;;;;4948204;28;20441;-72
2022/07/07 09:01:07;;;;;;;11.25;1.80;;;17.40;99.90;;;;;;4956041;28;20402;-75
2022/07/07 09:03:34;;;;;;;5.75;1.00;;;17.50;99.90;;;;;;4956911;28;20494;-70
2022/07/07 09:06:00;;;;;;;7.00;1.55;;;17.60;99.90;;;;;;4954936;28;20046;-73
2022/07/07 09:08:27;;;;;;;14.10;1.70;;;17.60;99.90;;;;;;4966559;28;20039;-72
2022/07/07 09:10:53;;;;;;;8.55;1.60;;;17.60;99.90;;;;;;4964017;28;20054;-77
2022/07/07 09:13:32;;;;;;;15.52;2.30;;;17.70;99.90;;;;;;4961804;28;20035;-71
2022/07/07 09:16:01;;;;;;;19.05;2.30;;;17.80;99.90;;;;;;4957132;28;20046;-72
2022/07/07 09:18:34;;;;;;;12.10;1.65;;;17.90;99.90;;;;;;4957582;28;20082;-70
2022/07/07 09:21:03;;;;;;;12.00;1.40;;;18.00;99.90;;;;;;4960349;28;20039;-75
2022/07/07 09:23:30;;;;;;;4.72;1.50;;;18.00;99.90;;;;;;4960059;28;20039;-73
2022/07/07 09:25:56;;;;;;;14.18;2.20;;;18.20;99.90;;;;;;4960284;28;20034;-70
2022/07/07 09:28:23;;;;;;;6.90;1.55;;;18.10;99.90;;;;;;4966501;28;20549;-74
2022/07/07 09:30:48;;;;;;;9.40;2.10;;;18.10;99.90;;;;;;4944364;28;20133;-70
2022/07/07 09:33:15;;;;;;;15.48;2.70;;;18.00;99.90;;;;;;4968532;28;20121;-71
2022/07/07 09:38:30;;;;;;;11.18;2.20;;;17.80;99.90;;;;;;4972783;28;20125;-71
2022/07/07 09:41:00;;;;;;;14.57;2.10;;;17.90;99.90;;;;;;4953779;28;20127;-75
2022/07/07 09:43:46;;;;;;;15.10;2.60;;;17.90;99.90;;;;;;4951645;28;20070;-73
2022/07/07 09:46:23;;;;;;;14.65;3.22;;;18.00;99.90;;;;;;4939779;28;20039;-75
2022/07/07 09:48:53;;;;;;;13.32;2.90;;;18.10;99.90;;;;;;4961562;28;20035;-75
2022/07/07 09:51:26;;;;;;;10.35;2.20;;;18.10;99.90;;;;;;4973297;28;20043;-74
2022/07/07 09:54:07;;;;;;;10.80;2.28;;;17.90;99.90;;;;;;4961932;28;20049;-72
2022/07/07 09:56:39;;;;;;;16.52;2.72;;;17.90;99.90;;;;;;4948154;28;20042;-74
2022/07/07 09:59:08;;;;;;;9.02;2.05;;;17.70;99.90;;;;;;4957638;28;20486;-80
2022/07/07 10:01:36;;;;;;;16.23;2.42;;;17.60;99.90;;;;;;4956642;28;20090;-74
2022/07/07 10:04:05;;;;;;;17.75;3.50;;;17.60;99.90;;;;;;4956359;28;20050;-76
2022/07/07 10:06:33;;;;;;;10.80;3.08;;;17.70;99.90;;;;;;4976269;28;20081;-71
2022/07/07 10:09:10;;;;;;;11.05;2.50;;;17.80;99.90;;;;;;4967554;28;20042;-72
2022/07/07 10:11:41;;;;;;;13.93;3.08;;;17.90;99.90;;;;;;4956538;28;20035;-72
2022/07/07 10:14:11;;;;;;;16.23;3.28;;;18.10;99.90;;;;;;4956546;28;20395;-74
2022/07/07 10:16:38;;;;;;;18.75;4.35;;;18.30;99.90;;;;;;4953454;28;20051;-71
2022/07/07 10:19:03;;;;;;;12.05;3.05;;;18.30;99.90;;;;;;4942167;28;20043;-77
2022/07/07 10:21:30;;;;;;;8.27;2.65;;;18.20;99.90;;;;;;4939848;29;20043;-76
2022/07/07 10:23:59;;;;;;;10.98;3.22;;;18.00;99.90;;;;;;4987541;28;20445;-73
2022/07/07 10:26:52;;;;;;;11.82;2.28;;;17.60;99.90;;;;;;4945967;29;20039;-71
2022/07/07 10:29:35;;;;;;;;;;;17.30;99.90;;;;;;4939367;28;20047;-74
2022/07/07 10:32:00;;;;;;;18.95;3.33;;;17.30;99.90;;;;;;4956453;28;19918;-73
2022/07/07 10:34:28;;;;;;;9.15;2.45;;;17.40;99.90;;;;;;4973066;28;20630;-69
2022/07/07 10:37:00;;;;;;;15.23;3.55;;;17.40;99.90;;;;;;4938837;28;20105;-72
2022/07/07 10:39:27;;;;;;;;;;;17.40;99.90;;;;;;4951322;28;20103;-76
2022/07/07 10:42:01;;;;;;;6.25;2.88;;;17.50;99.90;;;;;;4955970;28;19921;-71
2022/07/07 10:44:27;;;;;;;9.60;2.00;;;17.50;99.90;;;;;;4954161;28;20061;-78
2022/07/07 10:47:24;;;;;;;9.80;2.17;;;17.40;99.90;;;;;;4955548;28;20046;-76
2022/07/07 10:49:55;;;;;;;6.93;1.95;;;17.40;99.90;;;;;;4937949;29;20075;-71
2022/07/07 10:52:28;;;;;;;13.88;3.05;;;17.40;99.90;;;;;;4954712;28;20506;-75
2022/07/07 10:55:03;;;;;;;15.00;2.60;;;17.40;99.90;;;;;;4954098;28;20857;-74
2022/07/07 10:57:40;;;;;;;9.35;2.40;;;17.50;99.90;;;;;;4952048;28;20445;-73
2022/07/07 11:00:09;;;;;;;14.43;3.22;;;17.60;99.90;;;;;;4943767;28;20041;-78
2022/07/07 11:02:42;;;;;;;17.58;3.67;;;17.30;99.90;;;;;;4937839;28;20043;-76
2022/07/07 11:05:14;;;;;;;14.80;2.83;;;16.80;99.90;;;;;;4946139;29;20047;-77
2022/07/07 11:08:06;;;;;;;18.05;3.42;;;16.30;99.90;;;;;;4936726;29;20047;-72
2022/07/07 11:10:47;;;;;;;19.67;4.03;;;15.90;99.90;;;;;;4943796;28;20381;-74
2022/07/07 11:13:29;;;;;;;14.48;3.63;;;15.90;99.90;;;;;;4957020;28;20098;-75
2022/07/07 11:16:13;;;;;;;26.00;4.78;;;15.80;99.90;;;;;;4939425;28;20043;-71
2022/07/07 11:18:41;;;;;;;12.65;4.53;;;15.80;99.90;;;;;;4956731;28;20050;-72
2022/07/07 11:21:08;;;;;;;31.52;4.30;;;15.70;99.90;;;;;;4951950;28;20042;-72
2022/07/07 11:23:44;;;;;;;24.13;4.63;;;15.90;99.90;;;;;;4956402;28;20046;-72
2022/07/07 11:26:13;;;;;;;22.90;3.80;;;15.90;99.90;;;;;;4972132;28;20397;-70
2022/07/07 11:28:39;;;;;;;22.00;4.53;;;16.00;99.90;;;;;;4956146;28;20532;-74
2022/07/07 11:31:09;;;;;;;18.05;3.83;;;16.10;99.90;;;;;;4968672;28;20034;-72
2022/07/07 11:33:36;;;;;;;23.88;4.10;;;16.00;99.90;;;;;;4955730;28;20134;-78
2022/07/07 11:36:16;;;;;;;26.38;4.20;;;16.10;99.90;;;;;;4939269;28;20038;-76
2022/07/07 11:38:44;;;;;;;21.33;4.63;;;16.20;99.90;;;;;;4963061;28;20053;-75
2022/07/07 11:41:09;;;;;;;23.15;3.58;;;16.40;99.90;;;;;;4963000;28;20043;-76
2022/07/07 11:43:35;;;;;;;21.33;3.92;;;16.30;99.90;;;;;;4937787;28;20096;-77
2022/07/07 11:46:01;;;;;;;32.97;5.45;;;16.20;99.90;;;;;;4949035;29;20610;-77
2022/07/07 11:48:35;;;;;;;25.42;4.22;;;16.10;99.90;;;;;;4936773;29;20102;-75
2022/07/07 11:51:00;;;;;;;29.90;5.45;;;16.20;99.90;;;;;;4950422;28;20046;-75
2022/07/07 11:53:26;;;;;;;25.00;4.20;;;16.20;99.90;;;;;;4955471;28;20066;-75
2022/07/07 11:55:52;;;;;;;16.98;3.50;;;16.40;99.90;;;;;;4955451;28;20054;-70
2022/07/07 11:58:17;;;;;;;27.58;4.32;;;16.50;99.90;;;;;;4954438;28;20047;-72
2022/07/07 12:00:45;;;;;;;31.60;3.55;;;16.70;99.90;;;;;;4955516;28;20456;-72
2022/07/07 12:03:10;;;;;;;19.10;3.05;;;16.90;99.90;;;;;;4955619;28;20055;-76
2022/07/07 12:05:43;;;;;;;25.50;4.00;;;17.10;99.90;;;;;;4955003;28;20119;-72
2022/07/07 12:08:11;;;;;;;31.90;4.60;;;17.20;99.90;;;;;;4954596;28;20127;-73
2022/07/07 12:10:39;;;;;;;24.73;3.83;;;17.20;99.90;;;;;;4955057;28;20130;-77
2022/07/07 12:13:05;;;;;;;40.38;5.03;;;17.20;99.90;;;;;;4955105;28;20051;-75
2022/07/07 12:15:38;;;;;;;21.55;3.83;;;17.20;99.90;;;;;;4955251;28;20043;-72
2022/07/07 12:18:05;;;;;;;27.10;4.30;;;17.20;99.90;;;;;;4945931;28;20105;-78
2022/07/07 12:20:31;;;;;;;20.77;3.65;;;17.20;99.90;;;;;;4935694;29;20082;-71
2022/07/07 12:22:59;;;;;;;13.65;3.30;;;17.30;99.90;;;;;;4935292;29;20127;-81
2022/07/07 12:25:29;;;;;;;20.40;4.05;;;17.30;99.90;;;;;;4936554;28;20130;-74
2022/07/07 12:28:07;;;;;;;15.38;3.10;;;17.30;99.90;;;;;;4954351;28;20074;-71
2022/07/07 12:30:48;;;;;;;13.52;3.58;;;17.30;99.90;;;;;;4955388;28;20039;-72
2022/07/07 12:33:24;;;;;;;22.05;4.60;;;17.20;99.90;;;;;;4955178;28;20482;-75
2022/07/07 12:35:50;;;;;;;16.95;3.78;;;17.40;99.90;;;;;;4937684;28;20042;-72
2022/07/07 12:38:33;;;;;;;21.42;3.72;;;17.50;99.90;;;;;;4954414;28;20035;-75
2022/07/07 12:40:59;;;;;;;16.42;3.30;;;17.60;99.90;;;;;;4969029;28;20087;-75